createdAt,value
2023-04-29T00:00:21.604Z,101626.47
2023-04-29T00:02:48.193Z,101622.06
2023-04-29T00:05:15.118Z,101626.47
2023-04-29T00:07:42.066Z,101630.91
2023-04-29T00:10:08.929Z,101630.75
2023-04-29T00:12:35.522Z,101633.53
2023-04-29T00:15:03.136Z,101634.22
2023-04-29T00:17:29.672Z,101633.72
2023-04-29T00:19:56.206Z,101635.53
2023-04-29T00:22:22.879Z,101635.84
2023-04-29T00:24:49.299Z,101640.09
2023-04-29T00:27:16.855Z,101643.22
2023-04-29T00:29:43.684Z,101646.03
2023-04-29T00:32:10.390Z,101647.16
2023-04-29T00:34:36.871Z,101642.72
2023-04-29T00:37:03.993Z,101653.09
2023-04-29T00:39:30.428Z,101656.69
2023-04-29T00:41:56.930Z,101658.50
2023-04-29T00:44:23.371Z,101655.88
2023-04-29T00:46:49.806Z,101661.31
2023-04-29T00:49:16.538Z,101663.94
2023-04-29T00:51:44.297Z,101666.25
2023-04-29T00:54:11.666Z,101665.41
2023-04-29T00:56:41.962Z,101658.69
2023-04-29T00:59:10.160Z,101670.31
2023-04-29T01:01:36.943Z,101665.22
2023-04-29T01:04:05.992Z,101667.19
2023-04-29T01:06:50.898Z,101674.25
2023-04-29T01:09:24.350Z,101679.50
2023-04-29T01:11:59.756Z,101682.94
2023-04-29T01:14:26.251Z,101682.13
2023-04-29T01:16:59.565Z,101680.63
2023-04-29T01:19:52.835Z,101697.88
2023-04-29T01:22:21.698Z,101699.50
2023-04-29T01:24:49.348Z,101698.00
2023-04-29T01:27:30.028Z,101698.84
2023-04-29T01:30:01.262Z,101706.56
2023-04-29T01:33:15.578Z,101702.63
2023-04-29T01:36:11.929Z,101711.31
2023-04-29T01:39:08.239Z,101711.97
2023-04-29T01:41:43.073Z,101711.00
2023-04-29T01:44:17.052Z,101702.97
2023-04-29T01:46:49.245Z,101710.03
2023-04-29T01:49:15.939Z,101713.47
2023-04-29T01:51:42.448Z,101713.47
2023-04-29T01:54:08.961Z,101710.19
2023-04-29T01:56:35.378Z,101716.09
2023-04-29T01:59:01.959Z,101717.59
2023-04-29T02:01:28.360Z,101716.59
2023-04-29T02:03:55.004Z,101709.72
2023-04-29T02:06:21.606Z,101721.88
2023-04-29T02:08:49.085Z,101722.69
2023-04-29T02:11:15.646Z,101736.50
2023-04-29T02:13:42.135Z,101728.63
2023-04-29T02:16:10.826Z,101733.88
2023-04-29T02:18:37.780Z,101730.13
2023-04-29T02:21:04.288Z,101733.56
2023-04-29T02:23:31.205Z,101734.69
2023-04-29T02:25:57.699Z,101746.84
2023-04-29T02:28:24.163Z,101745.91
2023-04-29T02:30:50.663Z,101749.50
2023-04-29T02:33:18.360Z,101747.69
2023-04-29T02:35:45.033Z,101753.63
2023-04-29T02:38:12.113Z,101753.44
2023-04-29T02:40:45.659Z,101758.69
2023-04-29T02:43:12.672Z,101760.50
2023-04-29T02:45:39.836Z,101763.00
2023-04-29T02:48:07.002Z,101763.81
2023-04-29T02:50:33.727Z,101774.47
2023-04-29T02:53:00.477Z,101781.53
2023-04-29T02:55:26.996Z,101778.09
2023-04-29T02:57:53.529Z,101785.00
2023-04-29T03:00:20.701Z,101777.28
2023-04-29T03:02:47.492Z,101774.81
2023-04-29T03:05:14.140Z,101779.09
2023-04-29T03:07:40.605Z,101788.91
2023-04-29T03:10:07.756Z,101783.81
2023-04-29T03:12:34.741Z,101785.63
2023-04-29T03:15:01.249Z,101792.69
2023-04-29T03:17:27.802Z,101798.09
2023-04-29T03:19:54.570Z,101804.34
2023-04-29T03:22:21.282Z,101798.41
2023-04-29T03:24:47.734Z,101797.44
2023-04-29T03:27:14.230Z,101795.78
2023-04-29T03:29:40.696Z,101811.41
2023-04-29T03:32:07.340Z,101814.03
2023-04-29T03:34:34.408Z,101803.53
2023-04-29T03:37:01.290Z,101795.78
2023-04-29T03:39:32.211Z,101806.28
2023-04-29T03:41:59.662Z,101811.53
2023-04-29T03:44:26.816Z,101810.88
2023-04-29T03:46:53.317Z,101814.47
2023-04-29T03:49:19.834Z,101816.28
2023-04-29T03:51:46.709Z,101820.88
2023-04-29T03:54:13.261Z,101826.28
2023-04-29T03:56:39.849Z,101820.88
2023-04-29T03:59:06.426Z,101821.69
2023-04-29T04:01:33.347Z,101824.16
2023-04-29T04:04:00.279Z,101835.66
2023-04-29T04:06:26.988Z,101831.22
2023-04-29T04:08:53.425Z,101837.31
2023-04-29T04:11:19.864Z,101837.47
2023-04-29T04:13:46.284Z,101839.28
2023-04-29T04:16:12.977Z,101842.72
2023-04-29T04:18:40.229Z,101840.09
2023-04-29T04:21:11.407Z,101847.00
2023-04-29T04:23:40.594Z,101850.78
2023-04-29T04:26:07.566Z,101855.03
2023-04-29T04:28:34.141Z,101853.41
2023-04-29T04:31:00.649Z,101851.59
2023-04-29T04:33:27.426Z,101856.16
2023-04-29T04:35:53.907Z,101856.03
2023-04-29T04:38:20.409Z,101859.63
2023-04-29T04:40:47.007Z,101863.91
2023-04-29T04:43:13.430Z,101858.78
2023-04-29T04:45:39.903Z,101864.06
2023-04-29T04:48:06.994Z,101872.63
2023-04-29T04:50:33.487Z,101880.34
2023-04-29T04:52:59.914Z,101885.44
2023-04-29T04:55:26.384Z,101891.38
2023-04-29T04:57:52.876Z,101891.38
2023-04-29T05:00:19.593Z,101888.44
2023-04-29T05:02:46.253Z,101893.53
2023-04-29T05:05:12.739Z,101899.31
2023-04-29T05:07:39.800Z,101899.03
2023-04-29T05:10:07.137Z,101903.16
2023-04-29T05:12:35.237Z,101906.13
2023-04-29T05:15:02.473Z,101911.25
2023-04-29T05:17:29.162Z,101912.44
2023-04-29T05:19:55.642Z,101912.97
2023-04-29T05:22:22.562Z,101914.47
2023-04-29T05:24:49.096Z,101925.50
2023-04-29T05:27:15.676Z,101919.09
2023-04-29T05:29:42.171Z,101918.13
2023-04-29T05:32:08.648Z,101929.81
2023-04-29T05:34:35.167Z,101923.63
2023-04-29T05:37:01.607Z,101928.69
2023-04-29T05:39:28.057Z,101935.47
2023-04-29T05:41:54.458Z,101926.94
2023-04-29T05:44:20.914Z,101935.03
2023-04-29T05:46:48.788Z,101930.97
2023-04-29T05:49:16.226Z,101944.78
2023-04-29T05:51:42.721Z,101936.75
2023-04-29T05:54:09.164Z,101942.53
2023-04-29T05:56:35.671Z,101950.56
2023-04-29T05:59:02.109Z,101956.22
2023-04-29T06:01:28.526Z,101955.88
2023-04-29T06:03:55.163Z,101962.84
2023-04-29T06:06:21.945Z,101961.72
2023-04-29T06:08:49.056Z,101973.59
2023-04-29T06:11:15.735Z,101973.59
2023-04-29T06:13:42.156Z,101971.13
2023-04-29T06:16:08.932Z,101981.88
2023-04-29T06:18:35.480Z,101982.25
2023-04-29T06:21:01.971Z,101980.16
2023-04-29T06:23:28.412Z,101991.84
2023-04-29T06:25:54.903Z,101994.66
2023-04-29T06:28:21.615Z,102000.78
2023-04-29T06:30:48.140Z,101992.44
2023-04-29T06:33:14.605Z,102000.47
2023-04-29T06:35:41.610Z,102002.78
2023-04-29T06:38:10.949Z,102001.16
2023-04-29T06:40:37.474Z,102006.59
2023-04-29T06:43:04.584Z,102010.41
2023-04-29T06:45:31.909Z,102018.66
2023-04-29T06:47:58.435Z,102022.75
2023-04-29T06:50:25.184Z,102019.81
2023-04-29T06:52:51.712Z,102033.34
2023-04-29T06:55:18.228Z,102037.66
2023-04-29T06:57:44.673Z,102040.66
2023-04-29T07:00:11.919Z,102043.97
2023-04-29T07:02:39.544Z,102051.56
2023-04-29T07:05:06.624Z,102049.25
2023-04-29T07:07:33.096Z,102055.41
2023-04-29T07:09:59.583Z,102053.41
2023-04-29T07:12:26.718Z,102057.47
2023-04-29T07:14:53.195Z,102059.16
2023-04-29T07:17:20.729Z,102060.66
2023-04-29T07:19:47.632Z,102059.84
2023-04-29T07:22:14.109Z,102062.50
2023-04-29T07:24:40.586Z,102070.41
2023-04-29T07:27:07.398Z,102079.50
2023-04-29T07:29:34.184Z,102073.59
2023-04-29T07:32:00.673Z,102083.16
2023-04-29T07:34:27.234Z,102085.97
2023-04-29T07:36:53.635Z,102088.94
2023-04-29T07:39:20.079Z,102086.97
2023-04-29T07:41:46.601Z,102086.28
2023-04-29T07:44:13.033Z,102084.81
2023-04-29T07:46:39.731Z,102092.88
2023-04-29T07:49:06.971Z,102098.31
2023-04-29T07:51:33.435Z,102105.22
2023-04-29T07:53:59.944Z,102106.53
2023-04-29T07:56:26.747Z,102107.53
2023-04-29T07:58:53.227Z,102112.97
2023-04-29T08:01:19.637Z,102112.31
2023-04-29T08:03:46.273Z,102110.81
2023-04-29T08:06:13.269Z,102112.81
2023-04-29T08:08:39.863Z,102123.06
2023-04-29T08:11:06.755Z,102119.09
2023-04-29T08:13:33.413Z,102115.16
2023-04-29T08:15:59.923Z,102118.47
2023-04-29T08:18:26.656Z,102127.38
2023-04-29T08:20:53.149Z,102132.16
2023-04-29T08:23:19.612Z,102131.34
2023-04-29T08:25:46.295Z,102131.00
2023-04-29T08:28:12.957Z,102127.38
2023-04-29T08:30:41.058Z,102131.97
2023-04-29T08:33:08.327Z,102123.81
2023-04-29T08:35:37.581Z,102129.59
2023-04-29T08:38:07.839Z,102140.38
2023-04-29T08:40:35.948Z,102144.69
2023-04-29T08:43:04.152Z,102139.25
2023-04-29T08:45:32.537Z,102139.41
2023-04-29T08:47:59.418Z,102141.06
2023-04-29T08:50:27.928Z,102145.72
2023-04-29T08:52:56.005Z,102141.56
2023-04-29T08:55:22.999Z,102152.13
2023-04-29T08:57:52.475Z,102147.31
2023-04-29T09:00:19.721Z,102149.25
2023-04-29T09:02:57.319Z,102142.59
2023-04-29T09:05:24.528Z,102152.66
2023-04-29T09:07:52.549Z,102151.81
2023-04-29T09:10:19.554Z,102145.31
2023-04-29T09:12:46.813Z,102153.41
2023-04-29T09:15:13.453Z,102155.72
2023-04-29T09:17:47.616Z,102153.50
2023-04-29T09:20:20.257Z,102165.78
2023-04-29T09:22:51.171Z,102166.59
2023-04-29T09:25:17.961Z,102172.34
2023-04-29T09:27:44.532Z,102169.81
2023-04-29T09:30:12.607Z,102173.50
2023-04-29T09:32:39.960Z,102179.03
2023-04-29T09:35:24.029Z,102180.69
2023-04-29T09:37:50.940Z,102176.56
2023-04-29T09:40:43.513Z,102181.66
2023-04-29T09:43:18.569Z,102182.44
2023-04-29T09:45:47.376Z,102176.28
2023-04-29T09:48:15.691Z,102184.78
2023-04-29T09:50:43.626Z,102195.03
2023-04-29T09:53:11.821Z,102189.47
2023-04-29T09:55:53.496Z,102195.63
2023-04-29T09:58:31.512Z,102185.25
2023-04-29T10:01:02.464Z,102196.69
2023-04-29T10:03:34.679Z,102196.81
2023-04-29T10:06:02.984Z,102200.72
2023-04-29T10:08:30.258Z,102196.53
2023-04-29T10:11:01.325Z,102190.84
2023-04-29T10:13:28.897Z,102194.75
2023-04-29T10:16:09.895Z,102198.56
2023-04-29T10:18:37.946Z,102192.88
2023-04-29T10:21:08.234Z,102199.94
2023-04-29T10:23:35.846Z,102191.44
2023-04-29T10:26:03.700Z,102200.88
2023-04-29T10:28:33.534Z,102195.88
2023-04-29T10:31:05.494Z,102192.84
2023-04-29T10:33:35.548Z,102189.72
2023-04-29T10:36:03.282Z,102195.59
2023-04-29T10:38:37.199Z,102198.22
2023-04-29T10:41:11.443Z,102195.00
2023-04-29T10:43:37.950Z,102210.13
2023-04-29T10:46:16.444Z,102198.75
2023-04-29T10:49:12.519Z,102211.53
2023-04-29T10:51:44.057Z,102212.56
2023-04-29T10:54:15.533Z,102203.72
2023-04-29T10:56:44.272Z,102206.56
2023-04-29T10:59:13.132Z,102202.16
2023-04-29T11:01:47.546Z,102202.41
2023-04-29T11:04:14.232Z,102200.31
2023-04-29T11:06:43.737Z,102202.94
2023-04-29T11:09:14.359Z,102197.31
2023-04-29T11:11:54.112Z,102196.13
2023-04-29T11:14:26.889Z,102196.50
2023-04-29T11:16:56.626Z,102202.69
2023-04-29T11:19:25.861Z,102208.59
2023-04-29T11:22:09.004Z,102207.66
2023-04-29T11:24:36.848Z,102199.78
2023-04-29T11:27:06.320Z,102205.78
2023-04-29T11:29:33.379Z,102198.69
2023-04-29T11:32:01.898Z,102202.91
2023-04-29T11:34:28.447Z,102199.81
2023-04-29T11:36:54.987Z,102207.97
2023-04-29T11:39:21.615Z,102207.63
2023-04-29T11:41:52.438Z,102202.75
2023-04-29T11:44:24.945Z,102207.72
2023-04-29T11:46:51.548Z,102209.09
2023-04-29T11:49:18.543Z,102207.84
2023-04-29T11:51:45.114Z,102202.03
2023-04-29T11:54:12.228Z,102208.53
2023-04-29T11:59:31.687Z,102208.94
2023-04-29T12:01:59.372Z,102208.81
2023-04-29T12:04:26.360Z,102215.25
2023-04-29T12:06:56.548Z,102216.22
2023-04-29T12:09:23.655Z,102220.53
2023-04-29T12:11:51.039Z,102213.84
2023-04-29T12:14:20.799Z,102213.34
2023-04-29T12:16:48.504Z,102208.91
2023-04-29T12:19:15.317Z,102215.69
2023-04-29T12:21:49.153Z,102208.56
2023-04-29T12:24:16.216Z,102205.22
2023-04-29T12:26:48.756Z,102206.22
2023-04-29T12:29:17.447Z,102210.56
2023-04-29T12:31:47.647Z,102209.41
2023-04-29T12:34:17.414Z,102208.38
2023-04-29T12:36:44.780Z,102205.81
2023-04-29T12:39:11.519Z,102203.13
2023-04-29T12:41:39.912Z,102201.53
2023-04-29T12:44:07.083Z,102204.94
2023-04-29T12:46:41.738Z,102210.34
2023-04-29T12:49:08.802Z,102215.19
2023-04-29T12:51:35.771Z,102213.31
2023-04-29T12:54:04.064Z,102214.31
2023-04-29T12:56:31.732Z,102213.75
2023-04-29T12:59:06.437Z,102209.03
2023-04-29T13:01:33.487Z,102211.28
2023-04-29T13:04:05.469Z,102214.38
2023-04-29T13:06:33.024Z,102210.91
2023-04-29T13:08:59.738Z,102222.59
2023-04-29T13:11:32.181Z,102218.25
2023-04-29T13:14:00.925Z,102217.31
2023-04-29T13:16:28.021Z,102219.00
2023-04-29T13:19:08.858Z,102223.50
2023-04-29T13:21:41.333Z,102222.78
2023-04-29T13:24:08.592Z,102231.22
2023-04-29T13:26:35.168Z,102229.78
2023-04-29T13:29:01.998Z,102225.16
2023-04-29T13:31:28.870Z,102229.91
2023-04-29T13:33:55.647Z,102230.72
2023-04-29T13:36:22.389Z,102223.72
2023-04-29T13:38:54.160Z,102224.34
2023-04-29T13:41:23.006Z,102233.59
2023-04-29T13:43:50.933Z,102228.69
2023-04-29T13:46:20.504Z,102242.41
2023-04-29T13:52:01.395Z,102241.81
2023-04-29T13:57:05.461Z,102243.22
2023-04-29T14:02:23.078Z,102239.03
2023-04-29T14:04:44.304Z,102241.66
2023-04-29T14:07:11.042Z,102245.81
2023-04-29T14:09:37.541Z,102249.34
2023-04-29T14:12:04.257Z,102244.44
2023-04-29T14:14:30.745Z,102244.81
2023-04-29T14:16:57.707Z,102250.56
2023-04-29T14:19:24.344Z,102253.50
2023-04-29T14:21:54.864Z,102259.63
2023-04-29T14:24:22.407Z,102256.97
2023-04-29T14:26:48.835Z,102260.25
2023-04-29T14:29:15.429Z,102254.91
2023-04-29T14:31:42.275Z,102259.66
2023-04-29T14:34:09.568Z,102259.63
2023-04-29T14:36:36.299Z,102263.03
2023-04-29T14:39:04.276Z,102268.25
2023-04-29T14:41:32.219Z,102274.22
2023-04-29T14:43:58.703Z,102269.06
2023-04-29T14:46:26.183Z,102269.22
2023-04-29T14:48:52.677Z,102274.59
2023-04-29T14:51:19.414Z,102263.69
2023-04-29T14:53:45.877Z,102269.03
2023-04-29T14:56:12.631Z,102267.22
2023-04-29T14:58:39.257Z,102277.72
2023-04-29T15:01:06.155Z,102281.16
2023-04-29T15:03:32.839Z,102276.81
2023-04-29T15:06:03.845Z,102273.75
2023-04-29T15:08:31.126Z,102277.00
2023-04-29T15:10:57.590Z,102269.97
2023-04-29T15:13:24.428Z,102275.97
2023-04-29T15:15:52.088Z,102278.50
2023-04-29T15:18:18.758Z,102276.19
2023-04-29T15:20:46.158Z,102274.28
2023-04-29T15:23:12.647Z,102287.56
2023-04-29T15:25:39.293Z,102286.47
2023-04-29T15:28:06.012Z,102290.75
2023-04-29T15:30:36.281Z,102294.47
2023-04-29T15:33:04.649Z,102297.81
2023-04-29T15:35:31.714Z,102290.59
2023-04-29T15:37:59.308Z,102298.38
2023-04-29T15:40:26.220Z,102293.22
2023-04-29T15:43:04.331Z,102297.78
2023-04-29T15:45:31.167Z,102297.66
2023-04-29T15:47:57.840Z,102299.38
2023-04-29T15:50:24.321Z,102295.59
2023-04-29T15:52:55.112Z,102299.06
2023-04-29T15:55:22.330Z,102300.72
2023-04-29T15:57:51.359Z,102303.50
2023-04-29T16:00:18.590Z,102299.72
2023-04-29T16:02:45.344Z,102304.72
2023-04-29T16:05:12.081Z,102304.78
2023-04-29T16:07:38.606Z,102304.72
2023-04-29T16:10:05.679Z,102308.66
2023-04-29T16:12:32.164Z,102313.81
2023-04-29T16:14:58.602Z,102314.97
2023-04-29T16:17:25.474Z,102310.84
2023-04-29T16:19:55.971Z,102316.31
2023-04-29T16:22:22.563Z,102314.88
2023-04-29T16:24:50.010Z,102315.50
2023-04-29T16:27:17.496Z,102321.38
2023-04-29T16:29:44.033Z,102326.03
2023-04-29T16:32:11.293Z,102323.41
2023-04-29T16:34:38.023Z,102331.47
2023-04-29T16:37:05.089Z,102324.44
2023-04-29T16:39:31.771Z,102330.88
2023-04-29T16:41:59.752Z,102343.78
2023-04-29T16:44:26.451Z,102332.59
2023-04-29T16:46:53.470Z,102339.97
2023-04-29T16:49:25.471Z,102345.22
2023-04-29T16:51:52.382Z,102335.81
2023-04-29T16:54:28.306Z,102339.56
2023-04-29T16:56:54.916Z,102339.97
2023-04-29T16:59:21.482Z,102336.72
2023-04-29T17:01:48.603Z,102338.47
2023-04-29T17:04:15.317Z,102340.09
2023-04-29T17:06:42.381Z,102336.16
2023-04-29T17:09:09.516Z,102343.84
2023-04-29T17:11:36.156Z,102353.34
2023-04-29T17:14:03.414Z,102337.94
2023-04-29T17:16:31.065Z,102342.66
2023-04-29T17:18:58.140Z,102347.72
2023-04-29T17:21:25.822Z,102348.94
2023-04-29T17:23:53.472Z,102351.56
2023-04-29T17:26:21.416Z,102350.63
2023-04-29T17:28:47.929Z,102357.28
2023-04-29T17:31:15.775Z,102360.41
2023-04-29T17:33:54.652Z,102363.31
2023-04-29T17:36:22.588Z,102353.88
2023-04-29T17:38:49.070Z,102351.75
2023-04-29T17:41:15.786Z,102359.25
2023-04-29T17:43:45.440Z,102359.88
2023-04-29T17:46:16.670Z,102354.81
2023-04-29T17:48:43.302Z,102355.34
2023-04-29T17:51:09.846Z,102364.03
2023-04-29T17:53:39.083Z,102368.16
2023-04-29T17:56:05.763Z,102365.38
2023-04-29T17:58:32.250Z,102365.91
2023-04-29T18:00:59.271Z,102364.75
2023-04-29T18:03:27.500Z,102372.41
2023-04-29T18:05:54.061Z,102373.25
2023-04-29T18:08:21.275Z,102370.59
2023-04-29T18:10:47.838Z,102378.91
2023-04-29T18:13:14.629Z,102375.75
2023-04-29T18:15:41.157Z,102376.44
2023-04-29T18:18:08.206Z,102378.09
2023-04-29T18:20:34.906Z,102379.75
2023-04-29T18:23:01.738Z,102378.75
2023-04-29T18:25:28.249Z,102371.66
2023-04-29T18:28:07.523Z,102389.19
2023-04-29T18:30:45.928Z,102390.72
2023-04-29T18:33:12.494Z,102391.34
2023-04-29T18:35:41.631Z,102392.81
2023-04-29T18:38:12.205Z,102401.94
2023-04-29T18:40:38.719Z,102402.09
2023-04-29T18:43:05.289Z,102393.31
2023-04-29T18:45:31.921Z,102396.09
2023-04-29T18:47:58.718Z,102391.28
2023-04-29T18:50:25.244Z,102398.22
2023-04-29T18:52:51.887Z,102397.19
2023-04-29T18:55:18.434Z,102402.47
2023-04-29T18:57:44.967Z,102404.09
2023-04-29T19:00:15.582Z,102403.22
2023-04-29T19:02:42.387Z,102402.34
2023-04-29T19:05:12.988Z,102405.47
2023-04-29T19:07:39.738Z,102409.22
2023-04-29T19:10:07.208Z,102411.31
2023-04-29T19:12:33.943Z,102417.84
2023-04-29T19:15:00.618Z,102418.47
2023-04-29T19:17:27.441Z,102416.97
2023-04-29T19:19:54.790Z,102420.88
2023-04-29T19:22:21.626Z,102425.50
2023-04-29T19:24:48.513Z,102431.41
2023-04-29T19:27:14.994Z,102428.25
2023-04-29T19:29:41.466Z,102433.53
2023-04-29T19:32:08.668Z,102444.06
2023-04-29T19:34:35.364Z,102426.59
2023-04-29T19:37:01.982Z,102439.41
2023-04-29T19:39:28.907Z,102439.88
2023-04-29T19:41:56.037Z,102437.34
2023-04-29T19:44:22.887Z,102438.53
2023-04-29T19:46:53.582Z,102441.16
2023-04-29T19:49:20.750Z,102447.19
2023-04-29T19:51:47.400Z,102452.41
2023-04-29T19:54:14.094Z,102451.06
2023-04-29T19:56:40.534Z,102456.78
2023-04-29T19:59:07.156Z,102454.28
2023-04-29T20:01:33.939Z,102462.94
2023-04-29T20:04:00.625Z,102453.31
2023-04-29T20:06:27.299Z,102456.34
2023-04-29T20:08:53.799Z,102454.34
2023-04-29T20:11:20.868Z,102462.91
2023-04-29T20:13:47.566Z,102455.41
2023-04-29T20:16:14.208Z,102462.31
2023-04-29T20:18:40.903Z,102463.72
2023-04-29T20:21:07.636Z,102466.53
2023-04-29T20:23:34.087Z,102465.81
2023-04-29T20:26:01.428Z,102467.63
2023-04-29T20:28:27.866Z,102467.09
2023-04-29T20:30:54.319Z,102475.44
2023-04-29T20:33:21.037Z,102483.09
2023-04-29T20:35:47.628Z,102474.94
2023-04-29T20:38:14.127Z,102473.47
2023-04-29T20:40:40.646Z,102468.19
2023-04-29T20:43:07.770Z,102473.03
2023-04-29T20:45:37.012Z,102468.19
2023-04-29T20:48:03.858Z,102478.06
2023-04-29T20:50:30.612Z,102485.41
2023-04-29T20:52:57.578Z,102488.19
2023-04-29T20:55:24.745Z,102494.88
2023-04-29T20:57:51.310Z,102493.34
2023-04-29T21:00:17.864Z,102495.03
2023-04-29T21:02:44.478Z,102499.75
2023-04-29T21:05:11.033Z,102495.75
2023-04-29T21:07:37.870Z,102505.03
2023-04-29T21:10:04.994Z,102498.41
2023-04-29T21:12:31.463Z,102503.66
2023-04-29T21:14:57.895Z,102500.09
2023-04-29T21:17:25.066Z,102492.47
2023-04-29T21:19:51.778Z,102497.44
2023-04-29T21:22:18.585Z,102503.69
2023-04-29T21:24:45.112Z,102497.19
2023-04-29T21:27:11.566Z,102505.50
2023-04-29T21:29:40.873Z,102503.44
2023-04-29T21:32:08.389Z,102508.69
2023-04-29T21:34:35.934Z,102514.06
2023-04-29T21:37:02.517Z,102507.97
2023-04-29T21:39:31.398Z,102514.94
2023-04-29T21:42:00.090Z,102512.69
2023-04-29T21:44:27.939Z,102517.28
2023-04-29T21:46:54.604Z,102513.81
2023-04-29T21:49:21.424Z,102512.97
2023-04-29T21:51:48.301Z,102511.56
2023-04-29T21:54:14.739Z,102518.34
2023-04-29T21:56:41.311Z,102520.75
2023-04-29T21:59:07.906Z,102523.06
2023-04-29T22:01:43.266Z,102529.44
2023-04-29T22:04:09.909Z,102528.75
2023-04-29T22:06:36.532Z,102525.56
2023-04-29T22:09:03.771Z,102527.50
2023-04-29T22:11:30.709Z,102525.53
2023-04-29T22:13:57.231Z,102530.38
2023-04-29T22:16:23.910Z,102535.19
2023-04-29T22:18:51.274Z,102535.47
2023-04-29T22:21:18.599Z,102528.97
2023-04-29T22:23:45.678Z,102523.81
2023-04-29T22:26:12.282Z,102533.78
2023-04-29T22:28:38.825Z,102530.06
2023-04-29T22:31:05.594Z,102531.28
2023-04-29T22:33:32.150Z,102517.75
2023-04-29T22:35:58.628Z,102518.56
2023-04-29T22:38:25.055Z,102530.16
2023-04-29T22:40:54.493Z,102529.75
2023-04-29T22:43:21.164Z,102533.97
2023-04-29T22:45:52.376Z,102538.97
2023-04-29T22:48:18.953Z,102539.91
2023-04-29T22:50:56.698Z,102541.69
2023-04-29T22:53:23.390Z,102537.16
2023-04-29T22:55:54.249Z,102538.97
2023-04-29T22:58:21.765Z,102535.88
2023-04-29T23:00:59.331Z,102534.22
2023-04-29T23:03:26.827Z,102533.50
2023-04-29T23:05:59.941Z,102534.97
2023-04-29T23:08:27.359Z,102539.53
2023-04-29T23:10:53.938Z,102540.63
2023-04-29T23:13:20.563Z,102537.03
2023-04-29T23:15:47.068Z,102542.09
2023-04-29T23:18:14.262Z,102543.16
2023-04-29T23:20:40.878Z,102542.69
2023-04-29T23:23:07.309Z,102543.22
2023-04-29T23:25:34.778Z,102543.88
2023-04-29T23:28:01.288Z,102542.31
2023-04-29T23:30:27.723Z,102537.66
2023-04-29T23:32:54.186Z,102550.34
2023-04-29T23:35:21.242Z,102557.72
2023-04-29T23:37:47.778Z,102551.66
2023-04-29T23:40:15.847Z,102558.31
2023-04-29T23:42:42.425Z,102557.63
2023-04-29T23:45:09.157Z,102551.41
2023-04-29T23:47:35.648Z,102560.09
2023-04-29T23:50:02.230Z,102556.91
2023-04-29T23:52:28.686Z,102549.81
2023-04-29T23:54:55.154Z,102563.66
2023-04-29T23:57:21.572Z,102561.22
2023-04-29T23:59:48.001Z,102561.13
